createdAt,value
2018-08-03T00:00:49.284Z,23.56
2018-08-03T00:01:49.290Z,23.68
2018-08-03T00:02:49.295Z,23.63
2018-08-03T00:03:49.302Z,23.58
2018-08-03T00:04:49.308Z,23.55
2018-08-03T00:05:49.321Z,23.56
2018-08-03T00:06:49.320Z,23.58
2018-08-03T00:07:49.325Z,23.56
2018-08-03T00:08:49.331Z,23.55
2018-08-03T00:09:49.336Z,23.51
2018-08-03T00:10:49.346Z,23.51
2018-08-03T00:11:49.348Z,23.44
2018-08-03T00:12:49.354Z,23.43
2018-08-03T00:13:49.359Z,23.46
2018-08-03T00:14:49.364Z,23.41
2018-08-03T00:15:49.371Z,23.47
2018-08-03T00:16:49.377Z,23.43
2018-08-03T00:17:49.383Z,23.44
2018-08-03T00:18:49.389Z,23.46
2018-08-03T00:19:49.393Z,23.36
2018-08-03T00:20:49.400Z,23.40
2018-08-03T00:21:49.404Z,23.31
2018-08-03T00:22:49.411Z,23.40
2018-08-03T00:23:49.417Z,23.40
2018-08-03T00:24:49.422Z,23.27
2018-08-03T00:25:49.427Z,23.31
2018-08-03T00:26:49.433Z,23.27
2018-08-03T00:27:49.440Z,23.17
2018-08-03T00:28:49.444Z,23.23
2018-08-03T00:29:49.449Z,23.24
2018-08-03T00:30:49.455Z,23.23
2018-08-03T00:31:49.463Z,23.27
2018-08-03T00:32:49.467Z,23.23
2018-08-03T00:33:49.472Z,23.24
2018-08-03T00:34:49.477Z,23.13
2018-08-03T00:35:49.484Z,23.20
2018-08-03T00:36:49.490Z,23.08
2018-08-03T00:37:49.493Z,23.12
2018-08-03T00:38:49.499Z,23.03
2018-08-03T00:39:49.507Z,23.08
2018-08-03T00:40:49.515Z,22.99
2018-08-03T00:41:49.515Z,23.12
2018-08-03T00:42:49.522Z,23.08
2018-08-03T00:43:49.528Z,23.06
2018-08-03T00:44:49.539Z,23.06
2018-08-03T00:45:49.538Z,23.06
2018-08-03T00:46:49.545Z,23.12
2018-08-03T00:47:49.550Z,23.03
2018-08-03T00:48:49.556Z,23.06
2018-08-03T00:49:49.561Z,23.02
2018-08-03T00:50:49.567Z,22.99
2018-08-03T00:51:49.572Z,23.00
2018-08-03T00:52:49.578Z,23.00
2018-08-03T00:53:49.583Z,23.00
2018-08-03T00:54:49.588Z,22.94
2018-08-03T00:55:49.595Z,22.96
2018-08-03T00:56:49.600Z,23.00
2018-08-03T00:57:49.605Z,22.90
2018-08-03T00:58:49.611Z,22.94
2018-08-03T00:59:49.615Z,22.93
2018-08-03T01:00:49.621Z,22.87
2018-08-03T01:01:49.627Z,22.85
2018-08-03T01:02:49.632Z,22.88
2018-08-03T01:03:49.640Z,22.80
2018-08-03T01:04:49.643Z,22.83
2018-08-03T01:05:49.649Z,22.83
2018-08-03T01:06:49.653Z,22.87
2018-08-03T01:07:49.660Z,22.84
2018-08-03T01:08:49.665Z,22.83
2018-08-03T01:09:49.673Z,22.88
2018-08-03T01:10:49.675Z,22.85
2018-08-03T01:11:49.680Z,22.69
2018-08-03T01:12:49.686Z,22.76
2018-08-03T01:13:49.692Z,22.72
2018-08-03T01:14:49.698Z,22.76
2018-08-03T01:15:49.701Z,22.69
2018-08-03T01:16:49.708Z,22.70
2018-08-03T01:17:49.712Z,22.72
2018-08-03T01:18:49.718Z,22.60
2018-08-03T01:19:49.723Z,22.59
2018-08-03T01:20:49.730Z,22.60
2018-08-03T01:21:49.735Z,22.60
2018-08-03T01:22:49.739Z,22.50
2018-08-03T01:23:49.745Z,22.53
2018-08-03T01:24:49.750Z,22.53
2018-08-03T01:25:49.756Z,22.55
2018-08-03T01:26:49.760Z,22.48
2018-08-03T01:27:49.767Z,22.39
2018-08-03T01:28:49.771Z,22.41
2018-08-03T01:29:49.775Z,22.43
2018-08-03T01:30:49.782Z,22.47
2018-08-03T01:31:49.787Z,22.51
2018-08-03T01:32:49.792Z,22.48
2018-08-03T01:33:49.797Z,22.35
2018-08-03T01:34:49.802Z,22.45
2018-08-03T01:35:49.809Z,22.38
2018-08-03T01:36:49.812Z,22.48
2018-08-03T01:37:49.874Z,22.38
2018-08-03T01:38:49.823Z,22.41
2018-08-03T01:39:49.828Z,22.50
2018-08-03T01:40:49.835Z,22.47
2018-08-03T01:41:49.838Z,22.39
2018-08-03T01:42:49.844Z,22.30
2018-08-03T01:43:49.850Z,22.32
2018-08-03T01:44:49.856Z,22.33
2018-08-03T01:45:49.860Z,22.36
2018-08-03T01:46:49.868Z,22.38
2018-08-03T01:47:49.871Z,22.35
2018-08-03T01:48:49.877Z,22.30
2018-08-03T01:49:49.881Z,22.23
2018-08-03T01:50:49.887Z,22.29
2018-08-03T01:51:49.892Z,22.28
2018-08-03T01:52:49.896Z,22.26
2018-08-03T01:53:49.901Z,22.17
2018-08-03T01:54:49.905Z,22.15
2018-08-03T01:55:49.912Z,22.15
2018-08-03T01:56:49.917Z,22.11
2018-08-03T01:57:49.923Z,22.10
2018-08-03T01:58:49.927Z,22.15
2018-08-03T01:59:49.933Z,22.11
2018-08-03T02:00:49.937Z,22.06
2018-08-03T02:01:49.945Z,22.15
2018-08-03T02:02:49.948Z,22.04
2018-08-03T02:03:49.954Z,22.08
2018-08-03T02:04:49.958Z,21.99
2018-08-03T02:05:49.964Z,22.04
2018-08-03T02:06:49.975Z,22.02
2018-08-03T02:07:49.974Z,22.08
2018-08-03T02:08:49.979Z,22.18
2018-08-03T02:09:49.983Z,21.98
2018-08-03T02:10:49.988Z,22.00
2018-08-03T02:11:49.994Z,22.02
2018-08-03T02:12:49.999Z,22.02
2018-08-03T02:13:50.004Z,22.06
2018-08-03T02:14:50.009Z,22.02
2018-08-03T02:15:50.014Z,22.00
2018-08-03T02:16:50.019Z,21.98
2018-08-03T02:17:50.024Z,21.92
2018-08-03T02:18:50.031Z,21.96
2018-08-03T02:19:50.033Z,21.98
2018-08-03T02:20:50.039Z,21.96
2018-08-03T02:21:50.045Z,21.92
2018-08-03T02:22:50.048Z,21.85
2018-08-03T02:23:50.053Z,21.93
2018-08-03T02:24:50.062Z,21.91
2018-08-03T02:25:50.064Z,21.85
2018-08-03T02:26:50.070Z,21.89
2018-08-03T02:27:50.073Z,21.83
2018-08-03T02:28:50.078Z,21.82
2018-08-03T02:29:50.083Z,21.79
2018-08-03T02:30:50.089Z,21.82
2018-08-03T02:31:50.093Z,21.83
2018-08-03T02:32:50.098Z,21.79
2018-08-03T02:33:50.103Z,21.79
2018-08-03T02:34:50.110Z,21.76
2018-08-03T02:35:50.113Z,21.76
2018-08-03T02:36:50.117Z,21.76
2018-08-03T02:37:50.122Z,21.75
2018-08-03T02:38:50.127Z,21.76
2018-08-03T02:39:50.140Z,21.75
2018-08-03T02:40:50.138Z,21.70
2018-08-03T02:41:50.142Z,21.72
2018-08-03T02:42:50.149Z,21.75
2018-08-03T02:43:50.152Z,21.75
2018-08-03T02:44:50.156Z,21.73
2018-08-03T02:45:50.161Z,21.72
2018-08-03T02:46:50.165Z,21.77
2018-08-03T02:47:50.170Z,21.73
2018-08-03T02:48:50.176Z,21.77
2018-08-03T02:49:50.181Z,21.72
2018-08-03T02:50:50.186Z,21.73
2018-08-03T02:51:50.191Z,21.77
2018-08-03T02:52:50.195Z,21.66
2018-08-03T02:53:50.198Z,21.77
2018-08-03T02:54:50.204Z,21.75
2018-08-03T02:55:50.209Z,21.72
2018-08-03T02:56:50.214Z,21.70
2018-08-03T02:57:50.218Z,21.76
2018-08-03T02:58:50.225Z,21.73
2018-08-03T02:59:50.227Z,21.76
2018-08-03T03:00:50.234Z,21.76
2018-08-03T03:01:50.242Z,21.70
2018-08-03T03:02:50.243Z,21.73
2018-08-03T03:03:50.247Z,21.62
2018-08-03T03:04:50.253Z,21.61
2018-08-03T03:05:50.258Z,21.66
2018-08-03T03:06:50.262Z,21.67
2018-08-03T03:07:50.268Z,21.64
2018-08-03T03:08:50.271Z,21.62
2018-08-03T03:09:50.275Z,21.57
2018-08-03T03:10:50.281Z,21.54
2018-08-03T03:11:50.285Z,21.48
2018-08-03T03:12:50.290Z,21.52
2018-08-03T03:13:50.294Z,21.54
2018-08-03T03:14:50.300Z,21.46
2018-08-03T03:15:50.304Z,21.54
2018-08-03T03:16:50.310Z,21.46
2018-08-03T03:17:50.312Z,21.48
2018-08-03T03:18:50.318Z,21.40
2018-08-03T03:19:50.394Z,21.36
2018-08-03T03:20:50.328Z,21.42
2018-08-03T03:21:50.331Z,21.48
2018-08-03T03:22:50.338Z,21.37
2018-08-03T03:23:50.344Z,21.35
2018-08-03T03:24:50.348Z,21.37
2018-08-03T03:25:50.351Z,21.36
2018-08-03T03:26:50.354Z,21.40
2018-08-03T03:27:50.362Z,21.40
2018-08-03T03:28:50.366Z,21.50
2018-08-03T03:29:50.369Z,21.46
2018-08-03T03:30:50.376Z,21.48
2018-08-03T03:31:50.380Z,21.51
2018-08-03T03:32:50.384Z,21.54
2018-08-03T03:33:50.387Z,21.51
2018-08-03T03:34:50.393Z,21.54
2018-08-03T03:35:50.398Z,21.46
2018-08-03T03:36:50.402Z,21.51
2018-08-03T03:37:50.408Z,21.42
2018-08-03T03:38:50.411Z,21.37
2018-08-03T03:39:50.415Z,21.37
2018-08-03T03:40:50.421Z,21.37
2018-08-03T03:41:50.425Z,21.35
2018-08-03T03:42:50.428Z,21.35
2018-08-03T03:43:50.435Z,21.30
2018-08-03T03:44:50.440Z,21.32
2018-08-03T03:45:50.443Z,21.25
2018-08-03T03:46:50.448Z,21.27
2018-08-03T03:47:50.454Z,21.30
2018-08-03T03:48:50.457Z,21.24
2018-08-03T03:49:50.463Z,21.27
2018-08-03T03:50:50.467Z,21.22
2018-08-03T03:51:50.473Z,21.24
2018-08-03T03:52:50.479Z,21.20
2018-08-03T03:53:50.481Z,21.12
2018-08-03T03:54:50.492Z,21.17
2018-08-03T03:55:50.491Z,21.15
2018-08-03T03:56:50.495Z,21.12
2018-08-03T03:57:50.499Z,21.18
2018-08-03T03:58:50.503Z,21.15
2018-08-03T03:59:50.508Z,21.17
2018-08-03T04:00:50.514Z,21.21
2018-08-03T04:01:50.518Z,21.07
2018-08-03T04:02:50.523Z,21.17
2018-08-03T04:03:50.530Z,21.12
2018-08-03T04:04:50.532Z,21.09
2018-08-03T04:05:50.536Z,21.09
2018-08-03T04:06:50.540Z,21.09
2018-08-03T04:07:50.545Z,20.99
2018-08-03T04:08:50.551Z,21.02
2018-08-03T04:09:50.553Z,20.99
2018-08-03T04:10:50.580Z,21.14
2018-08-03T04:11:50.563Z,21.14
2018-08-03T04:12:50.568Z,21.14
2018-08-03T04:13:50.573Z,21.06
2018-08-03T04:14:50.579Z,21.09
2018-08-03T04:15:50.581Z,21.03
2018-08-03T04:16:50.586Z,21.07
2018-08-03T04:17:50.590Z,21.03
2018-08-03T04:18:50.594Z,21.00
2018-08-03T04:19:50.601Z,21.07
2018-08-03T04:20:50.608Z,21.00
2018-08-03T04:21:50.608Z,21.00
2018-08-03T04:22:50.614Z,21.02
2018-08-03T04:23:50.618Z,20.99
2018-08-03T04:24:50.622Z,21.02
2018-08-03T04:25:50.626Z,21.05
2018-08-03T04:26:50.630Z,20.96
2018-08-03T04:27:50.636Z,21.11
2018-08-03T04:28:50.640Z,21.02
2018-08-03T04:29:50.646Z,20.96
2018-08-03T04:30:50.652Z,21.03
2018-08-03T04:31:50.655Z,21.03
2018-08-03T04:32:50.659Z,20.96
2018-08-03T04:33:50.666Z,20.95
2018-08-03T04:34:50.668Z,21.02
2018-08-03T04:35:50.671Z,21.00
2018-08-03T04:36:50.678Z,21.03
2018-08-03T04:37:50.681Z,21.03
2018-08-03T04:38:50.730Z,21.07
2018-08-03T04:39:50.690Z,21.03
2018-08-03T04:40:50.696Z,21.07
2018-08-03T04:41:50.699Z,21.15
2018-08-03T04:42:50.703Z,21.18
2018-08-03T04:43:50.710Z,21.18
2018-08-03T04:44:50.712Z,21.20
2018-08-03T04:45:50.717Z,21.17
2018-08-03T04:46:50.723Z,21.21
2018-08-03T04:47:50.775Z,21.18
2018-08-03T04:48:50.732Z,21.22
2018-08-03T04:49:50.734Z,21.27
2018-08-03T04:50:50.742Z,21.24
2018-08-03T04:51:50.744Z,21.29
2018-08-03T04:52:50.749Z,21.32
2018-08-03T04:53:50.752Z,21.33
2018-08-03T04:54:50.849Z,21.36
2018-08-03T04:55:50.766Z,21.46
2018-08-03T04:56:50.768Z,21.42
2018-08-03T04:57:50.770Z,21.48
2018-08-03T04:58:50.775Z,21.61
2018-08-03T04:59:50.781Z,21.58
2018-08-03T05:00:50.786Z,21.67
2018-08-03T05:01:50.788Z,21.64
2018-08-03T05:02:50.794Z,21.62
2018-08-03T05:03:50.798Z,21.70
2018-08-03T05:04:50.896Z,21.70
2018-08-03T05:05:50.808Z,21.76
2018-08-03T05:06:50.812Z,21.77
2018-08-03T05:07:50.817Z,21.89
2018-08-03T05:08:50.824Z,21.91
2018-08-03T05:09:50.825Z,21.92
2018-08-03T05:10:50.831Z,22.07
2018-08-03T05:11:50.836Z,22.04
2018-08-03T05:12:50.842Z,22.10
2018-08-03T05:13:50.847Z,22.14
2018-08-03T05:14:50.850Z,22.15
2018-08-03T05:15:50.856Z,22.18
2018-08-03T05:16:50.859Z,22.23
2018-08-03T05:17:50.863Z,22.22
2018-08-03T05:18:50.868Z,22.35
2018-08-03T05:19:50.874Z,22.41
2018-08-03T05:20:50.878Z,22.44
2018-08-03T05:21:50.882Z,22.54
2018-08-03T05:22:50.892Z,22.55
2018-08-03T05:23:50.892Z,22.59
2018-08-03T05:24:50.897Z,22.63
2018-08-03T05:25:50.901Z,22.62
2018-08-03T05:26:50.909Z,22.59
2018-08-03T05:27:50.913Z,22.72
2018-08-03T05:28:50.917Z,22.69
2018-08-03T05:29:50.921Z,22.75
2018-08-03T05:30:50.927Z,22.96
2018-08-03T05:31:50.934Z,23.02
2018-08-03T05:32:50.936Z,23.08
2018-08-03T05:33:50.942Z,23.17
2018-08-03T05:34:50.948Z,23.31
2018-08-03T05:35:51.013Z,23.37
2018-08-03T05:36:50.956Z,23.39
2018-08-03T05:37:50.961Z,23.37
2018-08-03T05:38:50.967Z,23.51
2018-08-03T05:39:50.976Z,23.44
2018-08-03T05:40:50.978Z,23.58
2018-08-03T05:41:50.984Z,23.54
2018-08-03T05:42:50.987Z,23.59
2018-08-03T05:43:50.995Z,23.65
2018-08-03T05:44:50.999Z,23.66
2018-08-03T05:45:51.005Z,23.76
2018-08-03T05:46:51.009Z,23.73
2018-08-03T05:47:51.015Z,23.68
2018-08-03T05:48:51.021Z,23.66
2018-08-03T05:49:51.030Z,23.76
2018-08-03T05:50:51.031Z,23.78
2018-08-03T05:51:51.038Z,23.78
2018-08-03T05:52:51.043Z,23.81
2018-08-03T05:53:51.047Z,23.81
2018-08-03T05:54:51.054Z,23.87
2018-08-03T05:55:51.058Z,23.86
2018-08-03T05:56:51.065Z,23.95
2018-08-03T05:57:51.099Z,24.02
2018-08-03T05:58:51.076Z,24.14
2018-08-03T05:59:51.082Z,24.02
2018-08-03T06:00:51.088Z,24.18
2018-08-03T06:01:51.095Z,24.11
2018-08-03T06:02:51.100Z,24.17
2018-08-03T06:03:51.109Z,24.21
2018-08-03T06:04:51.111Z,24.30
2018-08-03T06:05:51.116Z,24.45
2018-08-03T06:06:51.124Z,24.57
2018-08-03T06:07:51.130Z,24.66
2018-08-03T06:08:51.134Z,24.68
2018-08-03T06:09:51.152Z,24.73
2018-08-03T06:10:51.147Z,24.63
2018-08-03T06:11:51.153Z,24.63
2018-08-03T06:12:51.159Z,24.68
2018-08-03T06:13:51.164Z,24.61
2018-08-03T06:14:51.172Z,24.58
2018-08-03T06:15:51.178Z,24.78
2018-08-03T06:16:51.184Z,24.77
2018-08-03T06:17:51.190Z,24.84
2018-08-03T06:18:51.196Z,24.80
2018-08-03T06:19:51.201Z,24.76
2018-08-03T06:20:51.208Z,24.78
2018-08-03T06:21:51.213Z,24.76
2018-08-03T06:22:51.220Z,24.73
2018-08-03T06:23:51.226Z,24.86
2018-08-03T06:24:51.233Z,25.03
2018-08-03T06:25:51.240Z,25.07
2018-08-03T06:26:51.246Z,25.16
2018-08-03T06:27:51.254Z,25.18
2018-08-03T06:28:51.258Z,25.28
2018-08-03T06:29:51.268Z,25.36
2018-08-03T06:30:51.272Z,25.40
2018-08-03T06:31:51.279Z,25.38
2018-08-03T06:32:51.284Z,25.43
2018-08-03T06:33:51.294Z,25.41
2018-08-03T06:34:51.297Z,25.43
2018-08-03T06:35:51.305Z,25.48
2018-08-03T06:36:51.310Z,25.47
2018-08-03T06:37:51.316Z,25.50
2018-08-03T06:38:51.323Z,25.46
2018-08-03T06:39:51.332Z,25.58
2018-08-03T06:40:51.355Z,25.62
2018-08-03T06:41:51.344Z,25.58
2018-08-03T06:42:51.356Z,25.63
2018-08-03T06:43:51.361Z,25.69
2018-08-03T06:44:51.365Z,25.73
2018-08-03T06:45:51.372Z,25.75
2018-08-03T06:46:51.379Z,25.80
2018-08-03T06:47:51.385Z,25.90
2018-08-03T06:48:51.394Z,25.93
2018-08-03T06:49:51.400Z,25.91
2018-08-03T06:50:51.405Z,26.00
2018-08-03T06:51:51.416Z,26.00
2018-08-03T06:52:51.421Z,26.02
2018-08-03T06:53:51.476Z,25.88
2018-08-03T06:54:51.434Z,26.00
2018-08-03T06:55:51.441Z,26.03
2018-08-03T06:56:51.449Z,26.15
2018-08-03T06:57:51.456Z,26.21
2018-08-03T06:58:51.469Z,26.21
2018-08-03T06:59:51.470Z,26.21
2018-08-03T07:00:51.477Z,26.31
2018-08-03T07:01:51.485Z,26.33
2018-08-03T07:02:51.550Z,26.44
2018-08-03T07:03:51.499Z,26.43
2018-08-03T07:04:51.506Z,26.53
2018-08-03T07:05:51.513Z,26.63
2018-08-03T07:06:51.520Z,26.71
2018-08-03T07:07:51.529Z,26.77
2018-08-03T07:08:51.537Z,26.81
2018-08-03T07:09:51.543Z,26.78
2018-08-03T07:10:51.550Z,26.75
2018-08-03T07:11:51.561Z,26.80
2018-08-03T07:12:51.565Z,26.88
2018-08-03T07:13:51.572Z,26.97
2018-08-03T07:14:51.613Z,26.93
2018-08-03T07:15:51.587Z,26.73
2018-08-03T07:16:51.600Z,26.75
2018-08-03T07:17:51.603Z,26.78
2018-08-03T07:18:51.610Z,26.88
2018-08-03T07:19:51.684Z,26.90
2018-08-03T07:20:51.625Z,26.92
2018-08-03T07:21:51.633Z,27.03
2018-08-03T07:22:51.640Z,26.97
2018-08-03T07:23:51.649Z,27.08
2018-08-03T07:24:51.658Z,27.17
2018-08-03T07:25:51.703Z,27.39
2018-08-03T07:26:51.671Z,27.44
2018-08-03T07:27:51.691Z,27.48
2018-08-03T07:28:51.687Z,27.32
2018-08-03T07:29:51.695Z,27.25
2018-08-03T07:30:51.703Z,27.37
2018-08-03T07:31:51.711Z,27.33
2018-08-03T07:32:51.718Z,27.39
2018-08-03T07:33:51.728Z,27.47
2018-08-03T07:34:51.733Z,27.49
2018-08-03T07:35:51.742Z,27.52
2018-08-03T07:36:51.760Z,27.60
2018-08-03T07:37:51.762Z,27.64
2018-08-03T07:38:51.766Z,27.75
2018-08-03T07:39:51.775Z,27.83
2018-08-03T07:40:51.783Z,27.90
2018-08-03T07:41:51.790Z,27.98
2018-08-03T07:42:51.823Z,27.98
2018-08-03T07:43:51.806Z,27.98
2018-08-03T07:44:51.836Z,28.10
2018-08-03T07:45:51.823Z,28.12
2018-08-03T07:46:51.836Z,28.00
2018-08-03T07:47:51.841Z,28.08
2018-08-03T07:48:51.849Z,28.12
2018-08-03T07:49:51.860Z,28.22
2018-08-03T07:50:51.866Z,28.29
2018-08-03T07:51:51.874Z,28.12
2018-08-03T07:52:51.882Z,28.26
2018-08-03T07:53:51.897Z,28.05
2018-08-03T07:54:51.900Z,28.14
2018-08-03T07:55:51.908Z,28.19
2018-08-03T07:56:51.916Z,28.20
2018-08-03T07:57:51.925Z,28.39
2018-08-03T07:58:51.936Z,28.60
2018-08-03T07:59:51.942Z,28.72
2018-08-03T08:00:51.951Z,29.08
2018-08-03T08:01:51.966Z,29.54
2018-08-03T08:02:51.970Z,30.12
2018-08-03T08:03:51.979Z,30.83
2018-08-03T08:04:51.992Z,31.69
2018-08-03T08:05:52.003Z,32.46
2018-08-03T08:06:52.015Z,32.77
2018-08-03T08:07:52.024Z,33.23
2018-08-03T08:08:52.040Z,33.59
2018-08-03T08:09:52.050Z,33.64
2018-08-03T08:10:52.062Z,33.23
2018-08-03T08:11:52.075Z,33.23
2018-08-03T08:12:52.089Z,33.42
2018-08-03T08:13:52.102Z,33.32
2018-08-03T08:14:52.115Z,33.77
2018-08-03T08:15:52.130Z,33.86
2018-08-03T08:16:52.194Z,34.51
2018-08-03T08:17:52.159Z,34.85
2018-08-03T08:18:52.173Z,34.64
2018-08-03T08:19:52.188Z,34.66
2018-08-03T08:20:52.204Z,34.11
2018-08-03T08:21:52.218Z,33.84
2018-08-03T08:22:52.234Z,34.06
2018-08-03T08:23:52.250Z,34.67
2018-08-03T08:24:52.264Z,34.88
2018-08-03T08:25:52.279Z,35.11
2018-08-03T08:26:52.298Z,35.83
2018-08-03T08:27:52.313Z,35.89
2018-08-03T08:28:52.327Z,36.35
2018-08-03T08:29:52.343Z,36.31
2018-08-03T08:30:52.358Z,36.70
2018-08-03T08:31:52.374Z,36.59
2018-08-03T08:32:52.391Z,36.55
2018-08-03T08:33:52.405Z,35.82
2018-08-03T08:34:52.421Z,35.56
2018-08-03T08:35:52.438Z,35.82
2018-08-03T08:36:52.466Z,36.16
2018-08-03T08:37:52.470Z,35.95
2018-08-03T08:38:52.489Z,35.60
2018-08-03T08:39:52.503Z,35.97
2018-08-03T08:40:52.520Z,36.04
2018-08-03T08:41:52.537Z,36.30
2018-08-03T08:42:52.553Z,36.36
2018-08-03T08:43:52.651Z,36.01
2018-08-03T08:44:52.591Z,36.02
2018-08-03T08:45:52.604Z,36.33
2018-08-03T08:46:52.621Z,36.42
2018-08-03T08:47:52.636Z,36.68
2018-08-03T08:48:52.656Z,35.98
2018-08-03T08:49:52.671Z,36.31
2018-08-03T08:50:52.689Z,36.80
2018-08-03T08:51:52.706Z,36.42
2018-08-03T08:52:52.724Z,36.77
2018-08-03T08:53:52.741Z,36.07
2018-08-03T08:54:52.777Z,36.45
2018-08-03T08:55:52.776Z,36.92
2018-08-03T08:56:52.793Z,37.29
2018-08-03T08:57:52.809Z,37.82
2018-08-03T08:58:52.828Z,38.12
2018-08-03T08:59:52.845Z,38.12
2018-08-03T09:00:52.888Z,38.15
2018-08-03T09:01:52.880Z,37.59
2018-08-03T09:02:52.900Z,37.68
2018-08-03T09:03:52.916Z,38.05
2018-08-03T09:04:52.934Z,38.54
2018-08-03T09:05:52.952Z,38.86
2018-08-03T09:06:53.046Z,38.92
2018-08-03T09:07:53.050Z,38.39
2018-08-03T09:08:53.008Z,38.64
2018-08-03T09:09:53.024Z,38.46
2018-08-03T09:10:53.041Z,38.50
2018-08-03T09:11:53.061Z,38.61
2018-08-03T09:12:53.111Z,38.61
2018-08-03T09:13:53.096Z,38.97
2018-08-03T09:14:53.119Z,39.24
2018-08-03T09:15:53.133Z,38.89
2018-08-03T09:16:53.150Z,39.11
2018-08-03T09:17:53.168Z,38.77
2018-08-03T09:18:53.188Z,38.71
2018-08-03T09:19:53.206Z,37.84
2018-08-03T09:20:53.226Z,38.17
2018-08-03T09:21:53.243Z,38.34
2018-08-03T09:22:53.264Z,38.62
2018-08-03T09:23:53.281Z,38.82
2018-08-03T09:24:53.302Z,39.30
2018-08-03T09:25:53.318Z,39.44
2018-08-03T09:26:53.339Z,39.53
2018-08-03T09:27:53.357Z,39.67
2018-08-03T09:28:53.376Z,39.15
2018-08-03T09:29:53.393Z,39.03
2018-08-03T09:30:53.420Z,39.25
2018-08-03T09:31:53.432Z,39.25
2018-08-03T09:32:53.453Z,39.40
2018-08-03T09:33:53.469Z,39.44
2018-08-03T09:34:53.490Z,39.11
2018-08-03T09:35:53.508Z,38.73
2018-08-03T09:36:53.529Z,37.53
2018-08-03T09:37:53.546Z,37.08
2018-08-03T09:38:53.566Z,37.63
2018-08-03T09:39:53.585Z,37.83
2018-08-03T09:40:53.606Z,37.49
2018-08-03T09:41:53.623Z,37.40
2018-08-03T09:42:53.696Z,37.45
2018-08-03T09:43:53.665Z,37.47
2018-08-03T09:44:53.681Z,36.96
2018-08-03T09:45:53.699Z,36.61
2018-08-03T09:46:53.718Z,36.76
2018-08-03T09:47:53.738Z,36.96
2018-08-03T09:48:53.757Z,37.23
2018-08-03T09:49:53.776Z,37.11
2018-08-03T09:50:53.795Z,36.99
2018-08-03T09:51:53.814Z,35.88
2018-08-03T09:52:53.836Z,35.79
2018-08-03T09:53:53.851Z,36.68
2018-08-03T09:54:53.870Z,37.33
2018-08-03T09:55:53.888Z,36.84
2018-08-03T09:56:53.907Z,36.99
2018-08-03T09:57:53.924Z,37.45
2018-08-03T09:58:53.944Z,37.87
2018-08-03T09:59:53.963Z,38.01
2018-08-03T10:00:53.980Z,37.47
2018-08-03T10:01:53.999Z,37.40
2018-08-03T10:02:54.018Z,37.23
2018-08-03T10:03:54.036Z,37.48
2018-08-03T10:04:54.054Z,37.51
2018-08-03T10:05:54.080Z,37.70
2018-08-03T10:06:54.091Z,37.33
2018-08-03T10:07:54.110Z,37.03
2018-08-03T10:08:54.128Z,36.61
2018-08-03T10:09:54.146Z,36.72
2018-08-03T10:10:54.165Z,37.07
2018-08-03T10:11:54.188Z,37.75
2018-08-03T10:12:54.222Z,38.15
2018-08-03T10:13:54.219Z,38.55
2018-08-03T10:14:54.239Z,39.14
2018-08-03T10:15:54.256Z,39.12
2018-08-03T10:16:54.276Z,39.09
2018-08-03T10:17:54.293Z,38.11
2018-08-03T10:18:54.313Z,36.43
2018-08-03T10:19:54.330Z,36.33
2018-08-03T10:20:54.349Z,36.74
2018-08-03T10:21:54.366Z,37.08
2018-08-03T10:22:54.385Z,37.17
2018-08-03T10:23:54.405Z,37.21
2018-08-03T10:24:54.423Z,37.70
2018-08-03T10:25:54.441Z,38.05
2018-08-03T10:26:54.459Z,38.40
2018-08-03T10:27:54.477Z,38.50
2018-08-03T10:28:54.494Z,37.89
2018-08-03T10:29:54.513Z,38.19
2018-08-03T10:30:54.532Z,38.46
2018-08-03T10:31:54.550Z,39.09
2018-08-03T10:32:54.570Z,39.46
2018-08-03T10:33:54.586Z,39.55
2018-08-03T10:34:54.606Z,38.92
2018-08-03T10:35:54.622Z,38.49
2018-08-03T10:36:54.640Z,38.23
2018-08-03T10:37:54.658Z,38.08
2018-08-03T10:38:54.675Z,37.94
2018-08-03T10:39:54.692Z,37.84
2018-08-03T10:40:54.715Z,37.68
2018-08-03T10:41:54.729Z,37.51
2018-08-03T10:42:54.779Z,37.14
2018-08-03T10:43:54.765Z,37.07
2018-08-03T10:44:54.784Z,37.07
2018-08-03T10:45:54.801Z,37.07
2018-08-03T10:46:54.819Z,36.96
2018-08-03T10:47:54.837Z,37.01
2018-08-03T10:48:54.855Z,37.23
2018-08-03T10:49:54.873Z,37.72
2018-08-03T10:50:54.889Z,37.68
2018-08-03T10:51:54.908Z,37.28
2018-08-03T10:52:54.925Z,37.26
2018-08-03T10:53:54.940Z,37.48
2018-08-03T10:54:54.964Z,37.28
2018-08-03T10:55:54.976Z,37.03
2018-08-03T10:56:54.993Z,36.54
2018-08-03T10:57:55.011Z,36.43
2018-08-03T10:58:55.029Z,36.89
2018-08-03T10:59:55.045Z,37.10
2018-08-03T11:00:55.064Z,37.28
2018-08-03T11:01:55.079Z,37.44
2018-08-03T11:02:55.097Z,37.82
2018-08-03T11:03:55.115Z,38.12
2018-08-03T11:04:55.134Z,38.67
2018-08-03T11:05:55.150Z,38.80
2018-08-03T11:06:55.221Z,39.19
2018-08-03T11:07:55.180Z,38.77
2018-08-03T11:08:55.199Z,36.96
2018-08-03T11:09:55.215Z,36.92
2018-08-03T11:10:55.232Z,36.91
2018-08-03T11:11:55.250Z,37.01
2018-08-03T11:12:55.266Z,37.53
2018-08-03T11:13:55.340Z,38.15
2018-08-03T11:14:55.299Z,38.27
2018-08-03T11:15:55.316Z,38.08
2018-08-03T11:16:55.334Z,37.93
2018-08-03T11:17:55.348Z,36.99
2018-08-03T11:18:55.379Z,37.08
2018-08-03T11:19:55.384Z,36.83
2018-08-03T11:20:55.401Z,36.81
2018-08-03T11:21:55.421Z,36.84
2018-08-03T11:22:55.433Z,36.65
2018-08-03T11:23:55.450Z,36.30
2018-08-03T11:24:55.467Z,36.23
2018-08-03T11:25:55.482Z,35.90
2018-08-03T11:26:55.499Z,35.93
2018-08-03T11:27:55.516Z,35.70
2018-08-03T11:28:55.532Z,35.83
2018-08-03T11:29:55.550Z,35.61
2018-08-03T11:30:55.563Z,35.24
2018-08-03T11:31:55.580Z,35.10
2018-08-03T11:32:55.595Z,35.07
2018-08-03T11:33:55.611Z,35.27
2018-08-03T11:34:55.626Z,35.29
2018-08-03T11:35:55.641Z,35.52
2018-08-03T11:36:55.659Z,35.73
2018-08-03T11:37:55.673Z,35.60
2018-08-03T11:38:55.687Z,35.37
2018-08-03T11:39:55.701Z,35.45
2018-08-03T11:40:55.751Z,35.45
2018-08-03T11:41:55.734Z,35.44
2018-08-03T11:42:55.750Z,35.30
2018-08-03T11:43:55.762Z,35.18
2018-08-03T11:44:55.778Z,35.10
2018-08-03T11:45:55.792Z,34.86
2018-08-03T11:46:55.807Z,34.83
2018-08-03T11:47:55.822Z,35.04
2018-08-03T11:48:55.837Z,35.11
2018-08-03T11:49:55.851Z,35.17
2018-08-03T11:50:55.865Z,35.26
2018-08-03T11:51:55.885Z,35.14
2018-08-03T11:52:55.896Z,35.11
2018-08-03T11:53:55.914Z,35.26
2018-08-03T11:54:55.924Z,35.34
2018-08-03T11:55:55.937Z,35.22
2018-08-03T11:56:55.953Z,35.24
2018-08-03T11:57:55.965Z,35.49
2018-08-03T11:58:55.982Z,35.34
2018-08-03T11:59:55.995Z,35.31
2018-08-03T12:00:56.046Z,35.31
2018-08-03T12:01:56.049Z,35.45
2018-08-03T12:02:56.040Z,35.15
2018-08-03T12:03:56.053Z,35.00
2018-08-03T12:04:56.073Z,35.18
2018-08-03T12:05:56.080Z,35.37
2018-08-03T12:06:56.093Z,35.55
2018-08-03T12:07:56.108Z,35.60
2018-08-03T12:08:56.121Z,35.52
2018-08-03T12:09:56.138Z,35.71
2018-08-03T12:10:56.178Z,35.83
2018-08-03T12:11:56.166Z,35.83
2018-08-03T12:12:56.178Z,35.85
2018-08-03T12:13:56.189Z,35.73
2018-08-03T12:14:56.207Z,35.44
2018-08-03T12:15:56.220Z,35.49
2018-08-03T12:16:56.234Z,35.53
2018-08-03T12:17:56.333Z,35.29
2018-08-03T12:18:56.260Z,35.34
2018-08-03T12:19:56.275Z,35.39
2018-08-03T12:20:56.290Z,35.44
2018-08-03T12:21:56.302Z,35.58
2018-08-03T12:22:56.317Z,35.48
2018-08-03T12:23:56.372Z,35.46
2018-08-03T12:24:56.344Z,35.48
2018-08-03T12:25:56.357Z,35.73
2018-08-03T12:26:56.373Z,36.00
2018-08-03T12:27:56.386Z,35.92
2018-08-03T12:28:56.399Z,35.83
2018-08-03T12:29:56.412Z,35.90
2018-08-03T12:30:56.426Z,35.92
2018-08-03T12:31:56.444Z,35.82
2018-08-03T12:32:56.454Z,35.86
2018-08-03T12:33:56.468Z,35.85
2018-08-03T12:34:56.482Z,35.82
2018-08-03T12:35:56.495Z,35.95
2018-08-03T12:36:56.548Z,35.93
2018-08-03T12:37:56.522Z,35.85
2018-08-03T12:38:56.536Z,35.83
2018-08-03T12:39:56.549Z,35.93
2018-08-03T12:40:56.570Z,35.97
2018-08-03T12:41:56.578Z,36.17
2018-08-03T12:42:56.589Z,36.04
2018-08-03T12:43:56.605Z,36.09
2018-08-03T12:44:56.618Z,36.16
2018-08-03T12:45:56.636Z,36.21
2018-08-03T12:46:56.643Z,36.18
2018-08-03T12:47:56.658Z,36.18
2018-08-03T12:48:56.671Z,36.25
2018-08-03T12:49:56.687Z,36.31
2018-08-03T12:50:56.698Z,35.85
2018-08-03T12:51:56.712Z,35.60
2018-08-03T12:52:56.749Z,35.49